Time;durP1;ratioP1;P1;durP2;ratioP2;P2;SDS_P1;SDS_P2;PMS_P1;PMS_P2;Temp;Humidity;BMP_temperature;BMP_pressure;BME280_temperature;BME280_humidity;BME280_pressure;Samples;Min_cycle;Max_cycle;Signal;HPM_P1;HPM_P2
2024/01/25 00:02:22;;;;;;;16.83;4.10;;;9.00;74.40;;;;;;5031882;28;20450;-79
2024/01/25 00:04:47;;;;;;;13.57;3.50;;;9.00;74.60;;;;;;5031810;28;20021;-78
2024/01/25 00:07:13;;;;;;;15.13;4.38;;;9.10;74.90;;;;;;5031727;28;20033;-79
2024/01/25 00:09:39;;;;;;;16.15;3.88;;;9.10;75.00;;;;;;5031572;28;20064;-78
2024/01/25 00:12:08;;;;;;;14.15;3.20;;;9.10;75.10;;;;;;5031753;28;20469;-81
2024/01/25 00:14:33;;;;;;;18.40;4.30;;;9.10;75.20;;;;;;5031134;28;20021;-79
2024/01/25 00:16:59;;;;;;;14.15;3.10;;;9.10;75.40;;;;;;5031759;28;20355;-77
2024/01/25 00:19:24;;;;;;;18.40;3.50;;;9.10;75.70;;;;;;5031811;28;20399;-79
2024/01/25 00:21:51;;;;;;;19.10;4.05;;;9.10;75.80;;;;;;5031677;28;20075;-79
2024/01/25 00:24:17;;;;;;;16.02;3.35;;;9.10;75.90;;;;;;5031808;28;20068;-79
2024/01/25 00:26:42;;;;;;;14.43;3.25;;;9.00;76.10;;;;;;5031607;28;20073;-81
2024/01/25 00:29:08;;;;;;;19.13;3.70;;;9.00;76.40;;;;;;5031879;28;20022;-84
2024/01/25 00:31:34;;;;;;;18.92;3.58;;;9.10;76.70;;;;;;5031385;28;20692;-77
2024/01/25 00:34:01;;;;;;;14.20;3.63;;;9.00;76.90;;;;;;5032668;28;20063;-80
2024/01/25 00:36:27;;;;;;;19.20;3.72;;;9.10;77.10;;;;;;5031552;28;20029;-83
2024/01/25 00:38:53;;;;;;;17.83;3.13;;;9.00;77.20;;;;;;5032296;28;20342;-81
2024/01/25 00:41:19;;;;;;;19.08;4.22;;;9.00;77.40;;;;;;5035329;28;20148;-81
2024/01/25 00:43:46;;;;;;;32.85;9.93;;;8.90;77.30;;;;;;5035234;28;20028;-80
2024/01/25 00:46:12;;;;;;;18.00;5.32;;;8.90;77.70;;;;;;5035269;28;20135;-81
2024/01/25 00:48:40;;;;;;;17.05;4.70;;;8.80;78.10;;;;;;5035440;28;20026;-81
2024/01/25 00:51:08;;;;;;;17.23;4.03;;;8.80;78.30;;;;;;5036631;28;20091;-79
2024/01/25 00:53:34;;;;;;;13.55;3.38;;;8.80;78.60;;;;;;5034912;28;20045;-78
2024/01/25 00:56:00;;;;;;;12.88;3.58;;;8.80;78.50;;;;;;5034612;28;20075;-79
2024/01/25 00:58:26;;;;;;;17.15;3.47;;;8.80;78.40;;;;;;5035236;28;20064;-80
2024/01/25 01:00:52;;;;;;;13.35;3.42;;;8.80;78.20;;;;;;5035227;28;20021;-78
2024/01/25 01:03:21;;;;;;;12.95;3.20;;;8.90;78.30;;;;;;5035057;28;20057;-79
2024/01/25 01:05:47;;;;;;;18.13;3.30;;;8.80;78.10;;;;;;5034784;28;20029;-78
2024/01/25 01:08:13;;;;;;;11.82;2.75;;;8.90;78.10;;;;;;5034889;28;20040;-79
2024/01/25 01:10:38;;;;;;;17.10;3.80;;;8.80;78.10;;;;;;5034901;28;20022;-79
2024/01/25 01:13:04;;;;;;;13.45;2.40;;;8.80;78.30;;;;;;5034885;28;20112;-78
2024/01/25 01:15:30;;;;;;;14.23;3.15;;;8.80;78.50;;;;;;5034882;28;20116;-79
2024/01/25 01:17:55;;;;;;;14.20;2.55;;;8.80;79.40;;;;;;5034654;28;20018;-78
2024/01/25 01:20:21;;;;;;;12.52;3.20;;;8.80;78.10;;;;;;5034805;28;20026;-79
2024/01/25 01:22:46;;;;;;;14.45;2.70;;;8.80;77.40;;;;;;5034673;28;20030;-80
2024/01/25 01:25:12;;;;;;;12.13;2.28;;;8.90;76.40;;;;;;5034629;28;20056;-78
2024/01/25 01:27:37;;;;;;;8.25;2.20;;;8.90;75.70;;;;;;5034230;28;20037;-80
2024/01/25 01:30:04;;;;;;;7.18;1.75;;;8.90;74.90;;;;;;5034503;28;20033;-77
2024/01/25 01:32:29;;;;;;;7.18;2.00;;;8.90;74.40;;;;;;5034799;28;20128;-81
2024/01/25 01:34:55;;;;;;;9.23;2.00;;;8.90;74.90;;;;;;5034659;28;20067;-79
2024/01/25 01:37:20;;;;;;;10.25;2.67;;;8.90;74.50;;;;;;5034528;28;20374;-79
2024/01/25 01:39:46;;;;;;;8.65;2.22;;;8.80;74.80;;;;;;5034018;28;20025;-80
2024/01/25 01:42:11;;;;;;;9.98;1.88;;;8.80;74.70;;;;;;5034345;28;20057;-81
2024/01/25 01:44:38;;;;;;;8.82;2.25;;;8.80;74.90;;;;;;5033871;28;20028;-83
2024/01/25 01:47:04;;;;;;;12.85;2.28;;;8.80;74.70;;;;;;5034299;28;20481;-79
2024/01/25 01:49:30;;;;;;;6.55;2.15;;;8.80;74.80;;;;;;5034267;28;20111;-81
2024/01/25 01:51:56;;;;;;;9.70;1.90;;;8.80;74.90;;;;;;5032827;28;20044;-80
2024/01/25 01:54:21;;;;;;;9.60;1.90;;;8.80;74.90;;;;;;5037172;28;20055;-84
2024/01/25 01:56:47;;;;;;;9.52;1.67;;;8.80;75.00;;;;;;5037536;28;20453;-83
2024/01/25 01:59:16;;;;;;;11.15;2.05;;;8.70;75.40;;;;;;5037445;28;20033;-79
2024/01/25 02:01:41;;;;;;;10.85;2.13;;;8.70;75.50;;;;;;5037120;28;20025;-81
2024/01/25 02:04:07;;;;;;;10.93;2.38;;;8.70;75.30;;;;;;5037259;28;20033;-80
2024/01/25 02:06:33;;;;;;;9.93;1.65;;;8.70;75.70;;;;;;5037140;28;20037;-78
2024/01/25 02:08:59;;;;;;;6.65;1.60;;;8.70;75.30;;;;;;5037014;28;20059;-78
2024/01/25 02:11:25;;;;;;;7.55;1.73;;;8.60;75.30;;;;;;5036718;28;20534;-79
2024/01/25 02:13:51;;;;;;;6.00;2.05;;;8.70;74.90;;;;;;5037087;28;20059;-81
2024/01/25 02:16:17;;;;;;;10.18;1.80;;;8.70;74.60;;;;;;5036682;28;20033;-79
2024/01/25 02:18:44;;;;;;;6.85;1.50;;;8.70;74.40;;;;;;5037096;28;20458;-79
2024/01/25 02:21:10;;;;;;;8.43;1.77;;;8.70;74.40;;;;;;5036775;28;20175;-79
2024/01/25 02:23:36;;;;;;;8.23;1.75;;;8.70;74.60;;;;;;5036823;28;20112;-81
2024/01/25 02:26:01;;;;;;;10.18;1.95;;;8.70;74.90;;;;;;5020233;28;20040;-79
2024/01/25 02:28:27;;;;;;;9.35;1.70;;;8.60;75.20;;;;;;5036760;28;20025;-76
2024/01/25 02:30:53;;;;;;;6.20;1.83;;;8.60;75.50;;;;;;5036880;28;20033;-76
2024/01/25 02:33:19;;;;;;;8.55;2.22;;;8.60;76.10;;;;;;5020382;28;20081;-79
2024/01/25 02:35:44;;;;;;;9.40;1.83;;;8.60;77.00;;;;;;5020078;28;20051;-75
2024/01/25 02:38:10;;;;;;;7.32;1.73;;;8.60;78.50;;;;;;5036652;28;20372;-76
2024/01/25 02:40:35;;;;;;;6.35;1.70;;;8.50;79.00;;;;;;5036570;28;20500;-76
2024/01/25 02:43:01;;;;;;;11.43;2.22;;;8.40;80.10;;;;;;5036498;28;20017;-77
2024/01/25 02:45:27;;;;;;;6.72;1.35;;;8.30;80.80;;;;;;5036333;28;20112;-75
2024/01/25 02:47:53;;;;;;;10.27;1.67;;;8.30;81.70;;;;;;5036084;28;20037;-76
2024/01/25 02:50:18;;;;;;;12.15;1.75;;;8.20;82.30;;;;;;5036141;28;20025;-75
2024/01/25 02:52:44;;;;;;;7.28;1.67;;;8.30;82.60;;;;;;5035960;28;20051;-75
2024/01/25 02:55:09;;;;;;;5.75;1.63;;;8.30;82.70;;;;;;5036333;28;20025;-76
2024/01/25 02:57:35;;;;;;;9.13;1.75;;;8.30;82.90;;;;;;5036356;28;20021;-77
2024/01/25 03:00:01;;;;;;;8.35;2.13;;;8.30;83.00;;;;;;5035966;28;20033;-77
2024/01/25 03:02:27;;;;;;;5.82;1.92;;;8.30;83.00;;;;;;5035820;28;20024;-77
2024/01/25 03:04:52;;;;;;;7.60;1.55;;;8.30;83.40;;;;;;5035952;28;20550;-77
2024/01/25 03:07:18;;;;;;;5.88;1.30;;;8.30;83.10;;;;;;5036020;28;20037;-77
2024/01/25 03:09:44;;;;;;;11.23;1.98;;;8.30;83.40;;;;;;5053896;28;20021;-76
2024/01/25 03:12:10;;;;;;;13.02;1.67;;;8.20;83.50;;;;;;5036118;28;20021;-76
2024/01/25 03:14:36;;;;;;;8.48;2.00;;;8.20;83.70;;;;;;5035991;28;20518;-77
2024/01/25 03:17:01;;;;;;;6.18;1.70;;;8.30;83.70;;;;;;5035773;28;20114;-77
2024/01/25 03:19:28;;;;;;;5.63;1.70;;;8.20;83.70;;;;;;5053765;28;20021;-76
2024/01/25 03:21:54;;;;;;;8.65;1.50;;;8.20;84.10;;;;;;5035661;28;20216;-77
2024/01/25 03:24:22;;;;;;;7.28;1.40;;;8.20;84.30;;;;;;5035806;28;20028;-76
2024/01/25 03:26:48;;;;;;;7.15;1.73;;;8.20;84.30;;;;;;5035685;28;20078;-77
2024/01/25 03:29:14;;;;;;;4.55;1.60;;;8.20;84.30;;;;;;5035559;28;20505;-76
2024/01/25 03:31:39;;;;;;;5.70;1.30;;;8.20;83.80;;;;;;5035631;28;20028;-77
2024/01/25 03:34:05;;;;;;;8.55;1.90;;;8.30;83.70;;;;;;5035630;28;20047;-79
2024/01/25 03:36:31;;;;;;;7.68;1.67;;;8.30;83.30;;;;;;5035595;28;20033;-77
2024/01/25 03:38:57;;;;;;;7.88;1.80;;;8.30;83.40;;;;;;5035537;28;20021;-78
2024/01/25 03:41:23;;;;;;;6.97;1.88;;;8.30;83.40;;;;;;5019013;28;20104;-77
2024/01/25 03:43:49;;;;;;;9.13;2.17;;;8.30;83.40;;;;;;5035370;28;20024;-78
2024/01/25 03:46:15;;;;;;;6.03;1.30;;;8.20;83.60;;;;;;5019090;28;20486;-78
2024/01/25 03:48:40;;;;;;;6.22;1.40;;;8.30;83.60;;;;;;5035475;28;20380;-77
2024/01/25 03:51:06;;;;;;;8.13;1.92;;;8.30;83.80;;;;;;5035084;28;20086;-77
2024/01/25 03:53:32;;;;;;;6.15;1.65;;;8.30;83.70;;;;;;5035185;28;20110;-79
2024/01/25 03:55:57;;;;;;;5.70;1.10;;;8.30;83.80;;;;;;5035494;28;20021;-80
2024/01/25 03:58:23;;;;;;;6.40;1.35;;;8.30;83.80;;;;;;5035320;28;20029;-79
2024/01/25 04:00:48;;;;;;;6.55;1.25;;;8.30;84.50;;;;;;5035398;28;20025;-79
2024/01/25 04:03:14;;;;;;;3.85;1.20;;;8.30;83.70;;;;;;5034930;28;20028;-77
2024/01/25 04:05:40;;;;;;;6.85;1.20;;;8.40;83.70;;;;;;5035058;28;20033;-77
2024/01/25 04:08:06;;;;;;;5.40;1.35;;;8.40;83.60;;;;;;5035014;28;20071;-77
2024/01/25 04:10:32;;;;;;;6.18;1.50;;;8.40;83.60;;;;;;5035156;28;20027;-76
2024/01/25 04:13:00;;;;;;;7.03;1.50;;;8.50;83.40;;;;;;5034939;28;20021;-77
2024/01/25 04:15:26;;;;;;;4.50;1.10;;;8.50;83.40;;;;;;5034643;28;20082;-77
2024/01/25 04:17:53;;;;;;;5.38;0.90;;;8.50;83.40;;;;;;5034558;28;20025;-79
2024/01/25 04:20:18;;;;;;;6.05;1.30;;;8.60;83.40;;;;;;5019017;28;20436;-77
2024/01/25 04:22:44;;;;;;;7.47;1.83;;;8.50;83.50;;;;;;5034861;28;20029;-76
2024/01/25 04:25:11;;;;;;;7.75;2.10;;;8.50;83.50;;;;;;5035034;28;20079;-75
2024/01/25 04:27:38;;;;;;;4.28;1.40;;;8.50;83.80;;;;;;5035092;28;20033;-76
2024/01/25 04:30:04;;;;;;;6.53;1.38;;;8.50;84.00;;;;;;5034862;28;20025;-77
2024/01/25 04:32:30;;;;;;;6.22;1.73;;;8.50;84.20;;;;;;5035184;28;20024;-77
2024/01/25 04:34:55;;;;;;;5.75;1.65;;;8.50;84.30;;;;;;5035045;28;20036;-77
2024/01/25 04:37:21;;;;;;;6.13;1.80;;;8.50;84.70;;;;;;5035144;28;20017;-77
2024/01/25 04:39:46;;;;;;;8.00;2.05;;;8.50;85.10;;;;;;5034350;28;20421;-79
2024/01/25 04:42:12;;;;;;;5.18;1.73;;;8.50;85.30;;;;;;5034733;28;20029;-77
2024/01/25 04:44:38;;;;;;;5.53;1.83;;;8.40;85.50;;;;;;5035047;28;20028;-80
2024/01/25 04:47:03;;;;;;;6.53;2.42;;;8.40;85.80;;;;;;5034787;28;20079;-81
2024/01/25 04:49:29;;;;;;;8.13;2.40;;;8.40;86.20;;;;;;5034647;28;20048;-81
2024/01/25 04:51:54;;;;;;;7.65;2.47;;;8.40;86.60;;;;;;5034846;28;20043;-80
2024/01/25 04:54:20;;;;;;;8.35;2.90;;;8.30;86.90;;;;;;5034581;28;20102;-82
2024/01/25 04:56:46;;;;;;;8.82;2.70;;;8.30;87.40;;;;;;5034574;28;20095;-80
2024/01/25 04:59:11;;;;;;;4.38;1.98;;;8.20;87.30;;;;;;5034640;28;20029;-80
2024/01/25 05:01:37;;;;;;;5.85;1.50;;;8.20;87.70;;;;;;5034754;28;20024;-79
2024/01/25 05:04:03;;;;;;;4.88;1.40;;;8.20;87.70;;;;;;5034951;28;20051;-78
2024/01/25 05:06:29;;;;;;;6.10;1.63;;;8.20;87.80;;;;;;5017994;28;20127;-83
2024/01/25 05:08:54;;;;;;;4.72;1.40;;;8.20;87.80;;;;;;5017966;28;20099;-78
2024/01/25 05:11:20;;;;;;;3.35;0.90;;;8.20;87.70;;;;;;5034413;28;20415;-77
2024/01/25 05:13:46;;;;;;;3.28;1.30;;;8.20;87.70;;;;;;5034614;28;20021;-78
2024/01/25 05:16:12;;;;;;;4.03;1.48;;;8.20;87.80;;;;;;5034625;28;20424;-77
2024/01/25 05:18:37;;;;;;;5.40;1.50;;;8.30;87.80;;;;;;5034659;28;20074;-77
2024/01/25 05:21:04;;;;;;;6.07;1.00;;;8.20;87.50;;;;;;5034490;28;20033;-77
2024/01/25 05:23:30;;;;;;;4.75;1.45;;;8.20;87.30;;;;;;5034381;28;20029;-76
2024/01/25 05:25:55;;;;;;;5.38;1.35;;;8.20;87.00;;;;;;5036604;28;20449;-79
2024/01/25 05:28:21;;;;;;;7.80;2.08;;;8.20;86.80;;;;;;5038143;28;20354;-78
2024/01/25 05:30:47;;;;;;;7.15;3.10;;;8.20;86.80;;;;;;5038094;28;20123;-77
2024/01/25 05:33:12;;;;;;;6.97;3.50;;;8.10;87.00;;;;;;5038047;28;20029;-77
2024/01/25 05:35:38;;;;;;;8.32;3.35;;;8.10;87.20;;;;;;5038128;28;20021;-77
2024/01/25 05:38:03;;;;;;;6.32;2.72;;;8.10;87.40;;;;;;5037932;28;20021;-77
2024/01/25 05:40:29;;;;;;;6.03;2.40;;;8.10;87.50;;;;;;5037610;28;20021;-77
2024/01/25 05:42:55;;;;;;;3.95;1.80;;;8.10;87.50;;;;;;5038266;28;20021;-80
2024/01/25 05:45:21;;;;;;;5.65;2.28;;;8.10;87.70;;;;;;5039063;28;20028;-80
2024/01/25 05:47:47;;;;;;;8.77;4.72;;;8.10;87.80;;;;;;5024712;28;20481;-81
2024/01/25 05:50:15;;;;;;;11.30;7.07;;;8.20;87.70;;;;;;5055459;28;20099;-81
2024/01/25 05:52:41;;;;;;;19.08;11.07;;;8.20;87.70;;;;;;5037388;28;20048;-78
2024/01/25 05:55:07;;;;;;;25.38;16.83;;;8.20;87.50;;;;;;5037032;28;20083;-78
2024/01/25 05:57:35;;;;;;;13.90;8.15;;;8.20;87.40;;;;;;5037242;28;20040;-77
2024/01/25 06:00:01;;;;;;;10.07;5.03;;;8.20;87.10;;;;;;5054112;28;20069;-79
2024/01/25 06:02:26;;;;;;;6.10;2.47;;;8.20;87.40;;;;;;5053981;28;20045;-78
2024/01/25 06:04:52;;;;;;;4.95;1.45;;;8.10;87.50;;;;;;5037347;28;20438;-76
2024/01/25 06:07:18;;;;;;;4.72;1.27;;;8.20;88.20;;;;;;5036960;28;20106;-77
2024/01/25 06:09:43;;;;;;;3.53;1.58;;;8.10;87.40;;;;;;5037327;28;20064;-78
2024/01/25 06:12:09;;;;;;;3.03;1.25;;;8.10;87.30;;;;;;5037120;28;20028;-77
2024/01/25 06:14:34;;;;;;;5.88;1.35;;;8.20;87.40;;;;;;5037524;28;20029;-79
2024/01/25 06:17:00;;;;;;;4.18;1.60;;;8.20;87.30;;;;;;5036950;28;20029;-79
2024/01/25 06:19:26;;;;;;;5.10;1.50;;;8.10;87.20;;;;;;5020723;28;20116;-78
2024/01/25 06:21:51;;;;;;;6.35;1.67;;;8.20;87.10;;;;;;5041942;28;20374;-80
2024/01/25 06:24:17;;;;;;;5.03;1.48;;;8.20;87.10;;;;;;5037226;28;20032;-80
2024/01/25 06:26:42;;;;;;;5.35;1.85;;;8.20;87.10;;;;;;5036514;28;20068;-81
2024/01/25 06:29:08;;;;;;;4.75;1.50;;;8.20;87.20;;;;;;5037024;28;20037;-81
2024/01/25 06:31:43;;;;;;;4.15;1.50;;;8.30;87.30;;;;;;5053154;28;20549;-82
2024/01/25 06:34:09;;;;;;;3.13;1.35;;;8.20;86.90;;;;;;5053298;28;20466;-79
2024/01/25 06:36:35;;;;;;;5.65;2.03;;;8.20;86.90;;;;;;5036020;28;20029;-81
2024/01/25 06:39:00;;;;;;;3.85;1.50;;;8.20;87.00;;;;;;5053357;28;20601;-81
2024/01/25 06:41:26;;;;;;;4.88;2.30;;;8.20;87.00;;;;;;5053276;28;20025;-83
2024/01/25 06:43:51;;;;;;;5.15;2.33;;;8.20;87.00;;;;;;5036383;28;20040;-81
2024/01/25 06:46:17;;;;;;;6.20;2.58;;;8.20;87.00;;;;;;5036838;28;20060;-81
2024/01/25 06:48:44;;;;;;;4.50;2.13;;;8.30;87.10;;;;;;5036361;28;20033;-80
2024/01/25 06:51:10;;;;;;;4.28;1.98;;;8.30;86.80;;;;;;5053577;28;20028;-80
2024/01/25 06:53:36;;;;;;;4.30;1.80;;;8.30;86.40;;;;;;5020248;28;20084;-80
2024/01/25 06:56:02;;;;;;;5.78;2.80;;;8.20;86.10;;;;;;5037597;28;20025;-81
2024/01/25 06:58:27;;;;;;;10.38;3.38;;;8.20;85.90;;;;;;5053436;28;20025;-78
2024/01/25 07:00:53;;;;;;;7.57;2.92;;;8.20;85.70;;;;;;5036873;28;20025;-78
2024/01/25 07:03:19;;;;;;;6.93;2.58;;;8.20;85.20;;;;;;5054428;28;20031;-79
2024/01/25 07:05:45;;;;;;;5.82;1.83;;;8.20;84.40;;;;;;5055314;28;20462;-81
2024/01/25 07:08:13;;;;;;;6.00;1.33;;;8.20;84.30;;;;;;5037743;28;20021;-80
2024/01/25 07:10:41;;;;;;;3.00;1.55;;;8.00;84.70;;;;;;5064575;28;20017;-80
2024/01/25 07:13:07;;;;;;;3.72;1.85;;;7.90;84.50;;;;;;5016948;28;20466;-83
2024/01/25 07:15:33;;;;;;;5.60;2.30;;;7.80;84.40;;;;;;5016767;28;20029;-81
2024/01/25 07:17:59;;;;;;;10.52;4.35;;;7.80;84.70;;;;;;5016702;28;20085;-76
2024/01/25 07:20:25;;;;;;;7.57;4.00;;;7.80;85.00;;;;;;5016020;28;20025;-78
2024/01/25 07:22:52;;;;;;;6.65;3.65;;;7.70;85.30;;;;;;5015795;28;20022;-81
2024/01/25 07:25:17;;;;;;;7.15;2.90;;;7.70;85.50;;;;;;5016136;28;20073;-82
2024/01/25 07:27:46;;;;;;;7.70;2.60;;;7.80;85.60;;;;;;5016073;28;20038;-79
2024/01/25 07:30:12;;;;;;;2.92;1.35;;;7.80;85.70;;;;;;5032212;28;20390;-81
2024/01/25 07:32:41;;;;;;;3.83;1.20;;;7.80;85.60;;;;;;5018037;28;20094;-82
2024/01/25 07:35:07;;;;;;;6.25;1.40;;;7.80;85.60;;;;;;5035410;28;20100;-79
2024/01/25 07:37:33;;;;;;;4.93;1.48;;;7.80;85.70;;;;;;5015653;28;20053;-77
2024/01/25 07:39:58;;;;;;;4.20;1.17;;;7.90;85.70;;;;;;5033618;28;20032;-78
2024/01/25 07:42:24;;;;;;;4.18;1.10;;;7.90;85.80;;;;;;5033208;28;20030;-77
2024/01/25 07:44:49;;;;;;;4.07;1.65;;;8.00;85.60;;;;;;5015356;28;20037;-78
2024/01/25 07:47:15;;;;;;;4.18;1.73;;;8.00;85.50;;;;;;5033366;28;20095;-79
2024/01/25 07:49:41;;;;;;;9.07;2.10;;;8.10;85.50;;;;;;5032927;28;20025;-79
2024/01/25 07:52:06;;;;;;;5.05;1.55;;;8.10;85.10;;;;;;5015461;28;20026;-76
2024/01/25 07:54:32;;;;;;;5.35;1.92;;;8.00;84.40;;;;;;5049748;28;20107;-78
2024/01/25 07:56:58;;;;;;;7.55;2.47;;;8.10;84.60;;;;;;5053133;28;20036;-81
2024/01/25 07:59:23;;;;;;;5.47;2.30;;;8.10;84.40;;;;;;5035080;28;20029;-80
2024/01/25 08:01:50;;;;;;;8.77;3.00;;;8.10;84.30;;;;;;5035423;28;20079;-78
2024/01/25 08:04:16;;;;;;;5.28;2.10;;;8.10;84.00;;;;;;5035197;28;20020;-79
2024/01/25 08:06:41;;;;;;;10.23;2.50;;;8.10;83.50;;;;;;5052268;28;20470;-77
2024/01/25 08:09:08;;;;;;;4.22;1.77;;;8.10;83.20;;;;;;5035106;28;20044;-78
2024/01/25 08:11:34;;;;;;;3.20;1.33;;;8.10;83.10;;;;;;5054368;28;20021;-81
2024/01/25 08:13:59;;;;;;;5.15;1.67;;;8.10;83.00;;;;;;5036152;28;20347;-81
2024/01/25 08:16:26;;;;;;;4.57;2.03;;;8.10;82.60;;;;;;5035690;28;20052;-77
2024/01/25 08:18:52;;;;;;;5.00;2.08;;;8.10;82.70;;;;;;5035429;28;20028;-82
2024/01/25 08:21:22;;;;;;;5.53;2.15;;;8.10;82.90;;;;;;5053031;28;20029;-83
2024/01/25 08:24:18;;;;;;;10.43;2.47;;;8.10;83.60;;;;;;5022549;28;20405;-88
2024/01/25 08:30:29;;;;;;;5.80;1.80;;;8.80;83.40;;;;;;5060324;28;20059;-82
2024/01/25 08:32:59;;;;;;;5.93;1.70;;;9.10;80.40;;;;;;5042818;28;20485;-80
2024/01/25 08:35:26;;;;;;;4.15;1.70;;;9.20;78.20;;;;;;5035725;28;20029;-81
2024/01/25 08:37:52;;;;;;;5.45;1.92;;;9.20;77.50;;;;;;5051709;28;20036;-81
2024/01/25 08:40:24;;;;;;;6.13;2.05;;;9.10;75.90;;;;;;5054056;28;20432;-80
2024/01/25 08:42:50;;;;;;;5.85;1.80;;;9.20;76.50;;;;;;5019428;28;20098;-80
2024/01/25 08:45:18;;;;;;;7.07;2.08;;;9.20;77.70;;;;;;5036908;28;20029;-82
2024/01/25 08:48:13;;;;;;;5.65;1.90;;;9.30;75.90;;;;;;5052368;28;20033;-83
2024/01/25 08:50:39;;;;;;;8.48;1.98;;;9.30;75.70;;;;;;5053582;28;20051;-81
2024/01/25 08:53:36;;;;;;;7.78;1.98;;;9.20;73.90;;;;;;5036902;28;20497;-80
2024/01/25 08:56:21;;;;;;;11.25;2.33;;;9.10;74.50;;;;;;5052576;28;20036;-81
2024/01/25 08:58:50;;;;;;;8.88;2.30;;;9.00;73.70;;;;;;5020745;28;20022;-87
2024/01/25 09:01:15;;;;;;;10.00;2.85;;;8.80;75.10;;;;;;5027073;28;20029;-81
2024/01/25 09:03:41;;;;;;;9.52;3.10;;;8.80;75.00;;;;;;5040409;28;20442;-77
2024/01/25 09:06:07;;;;;;;14.70;3.75;;;8.60;75.60;;;;;;5038729;28;20068;-75
2024/01/25 09:08:33;;;;;;;11.98;3.67;;;8.60;76.20;;;;;;5055781;28;20032;-75
2024/01/25 09:10:59;;;;;;;19.65;4.63;;;8.60;75.70;;;;;;5037985;28;20025;-76
2024/01/25 09:13:24;;;;;;;11.20;3.10;;;8.50;76.90;;;;;;5038330;28;20025;-75
2024/01/25 09:15:51;;;;;;;13.50;3.28;;;8.20;77.10;;;;;;5038084;28;20025;-77
2024/01/25 09:18:17;;;;;;;16.90;3.60;;;8.20;77.40;;;;;;5021702;28;20385;-76
2024/01/25 09:20:47;;;;;;;14.20;2.95;;;8.20;76.90;;;;;;5021368;28;20067;-77
2024/01/25 09:23:17;;;;;;;12.95;2.90;;;8.10;77.70;;;;;;5037920;28;20091;-77
2024/01/25 09:25:45;;;;;;;22.15;4.05;;;8.10;77.50;;;;;;5037766;28;20481;-77
2024/01/25 09:28:11;;;;;;;16.83;3.25;;;8.10;77.60;;;;;;5037948;28;20036;-76
2024/01/25 09:30:39;;;;;;;14.68;3.13;;;8.20;77.50;;;;;;5055873;28;20463;-76
2024/01/25 09:33:05;;;;;;;16.70;3.45;;;8.30;77.20;;;;;;5037839;28;20033;-75
2024/01/25 09:35:30;;;;;;;15.75;2.97;;;8.20;77.40;;;;;;5055728;28;20025;-75
2024/01/25 09:37:59;;;;;;;12.95;2.50;;;8.30;77.10;;;;;;5055769;28;20025;-76
2024/01/25 09:40:33;;;;;;;15.70;3.40;;;8.40;77.10;;;;;;5037593;28;20021;-76
2024/01/25 09:43:01;;;;;;;17.35;3.22;;;8.30;76.70;;;;;;5037612;28;20130;-77
2024/01/25 09:45:31;;;;;;;13.85;3.05;;;8.60;76.60;;;;;;5054127;28;20426;-76
2024/01/25 09:47:59;;;;;;;18.02;3.00;;;8.80;75.50;;;;;;5038279;28;20394;-76
2024/01/25 09:50:55;;;;;;;19.63;3.90;;;9.10;74.40;;;;;;5057006;28;20103;-77
2024/01/25 09:53:23;;;;;;;16.70;3.40;;;9.30;72.70;;;;;;5055752;28;20053;-79
2024/01/25 09:56:16;;;;;;;25.83;4.47;;;9.40;72.60;;;;;;5037907;28;20397;-76
2024/01/25 09:58:47;;;;;;;15.90;3.22;;;9.20;72.00;;;;;;5037333;28;20122;-77
2024/01/25 10:01:26;;;;;;;19.38;3.33;;;9.00;72.50;;;;;;5037831;28;20029;-77
2024/01/25 10:03:52;;;;;;;18.75;3.70;;;8.70;74.50;;;;;;5037597;28;20029;-76
2024/01/25 10:07:01;;;;;;;21.42;4.25;;;8.50;76.10;;;;;;5037099;28;20032;-78
2024/01/25 10:09:27;;;;;;;16.05;3.95;;;8.30;76.80;;;;;;5299321;22;20040;-76
2024/01/25 10:11:53;;;;;;;13.85;3.42;;;8.40;75.90;;;;;;5053836;28;20044;-78
2024/01/25 10:14:18;;;;;;;14.05;3.28;;;8.50;75.60;;;;;;5037120;28;20048;-78
2024/01/25 10:16:45;;;;;;;22.50;4.38;;;8.80;75.10;;;;;;5053766;28;20470;-76
2024/01/25 10:19:12;;;;;;;18.98;3.47;;;8.90;74.50;;;;;;5055020;28;20029;-75
2024/01/25 10:21:37;;;;;;;17.83;3.78;;;8.90;73.20;;;;;;5054702;28;20040;-77
2024/01/25 10:24:05;;;;;;;17.55;4.10;;;9.00;73.60;;;;;;5037180;28;20025;-79
2024/01/25 10:26:34;;;;;;;17.70;4.25;;;9.20;73.60;;;;;;5036538;28;20060;-79
2024/01/25 10:29:01;;;;;;;15.02;3.42;;;9.30;73.00;;;;;;5054939;28;20029;-76
2024/01/25 10:31:28;;;;;;;20.83;6.10;;;9.40;73.30;;;;;;5054578;28;20035;-81
2024/01/25 10:33:55;;;;;;;18.30;6.15;;;9.60;73.00;;;;;;5036975;28;20116;-77
2024/01/25 10:36:21;;;;;;;19.92;5.72;;;9.80;72.30;;;;;;5036917;28;20025;-78
2024/01/25 10:38:50;;;;;;;16.50;3.90;;;9.90;71.30;;;;;;5054510;28;20386;-77
2024/01/25 10:41:16;;;;;;;17.92;4.50;;;9.80;71.30;;;;;;5036623;28;20684;-78
2024/01/25 10:43:41;;;;;;;10.27;3.05;;;9.50;72.30;;;;;;5054353;28;20064;-78
2024/01/25 10:46:08;;;;;;;9.20;2.88;;;9.50;72.30;;;;;;5035883;28;20120;-77
2024/01/25 10:48:37;;;;;;;14.63;4.47;;;9.60;72.30;;;;;;5036409;28;20069;-78
2024/01/25 10:51:04;;;;;;;10.88;3.10;;;9.70;72.40;;;;;;5054308;28;20021;-78
2024/01/25 10:53:35;;;;;;;9.10;2.47;;;9.70;72.50;;;;;;5054691;28;20033;-77
2024/01/25 10:56:01;;;;;;;13.50;4.22;;;9.70;72.50;;;;;;5054286;28;20028;-77
2024/01/25 10:58:31;;;;;;;11.13;2.97;;;9.80;72.60;;;;;;5054021;28;20029;-77
2024/01/25 11:00:58;;;;;;;14.02;3.15;;;9.80;72.90;;;;;;5036164;28;20074;-77
2024/01/25 11:03:28;;;;;;;7.65;2.22;;;9.60;73.80;;;;;;5035718;28;20060;-78
2024/01/25 11:06:10;;;;;;;6.28;1.80;;;9.60;73.70;;;;;;5036787;23;20513;-77
2024/01/25 11:08:40;;;;;;;6.30;1.67;;;9.50;73.90;;;;;;5032899;28;20044;-77
2024/01/25 11:11:09;;;;;;;10.80;2.38;;;9.40;75.10;;;;;;5034923;28;20026;-76
2024/01/25 11:27:43;;;;;;;6.13;1.75;;;9.40;75.90;;;;;;5227122;22;1138220;-77
2024/01/25 11:30:09;;;;;;;4.28;1.75;;;9.50;75.50;;;;;;5015845;28;20065;-77
2024/01/25 11:32:37;;;;;;;8.13;2.05;;;9.60;75.20;;;;;;5033336;28;20075;-77
2024/01/25 11:35:21;;;;;;;5.03;1.60;;;9.60;74.90;;;;;;5015826;28;20421;-78
2024/01/25 11:37:48;;;;;;;11.90;5.20;;;9.70;75.20;;;;;;5033393;28;20108;-78
2024/01/25 11:40:15;;;;;;;6.22;2.00;;;9.80;75.40;;;;;;5033622;28;20037;-76
2024/01/25 11:42:43;;;;;;;14.73;6.90;;;9.70;74.30;;;;;;5032364;28;20056;-78
2024/01/25 11:45:14;;;;;;;10.68;3.63;;;9.80;74.60;;;;;;5015358;28;20033;-79
2024/01/25 11:47:42;;;;;;;8.40;2.22;;;9.70;75.50;;;;;;5000061;28;20037;-78
2024/01/25 11:50:11;;;;;;;6.38;1.90;;;9.80;75.20;;;;;;5016353;28;20053;-78
2024/01/25 11:52:38;;;;;;;10.43;3.80;;;9.90;75.10;;;;;;5034124;28;20104;-78
2024/01/25 11:55:10;;;;;;;8.38;2.10;;;9.90;75.00;;;;;;5034430;28;20037;-77
2024/01/25 11:57:43;;;;;;;5.28;1.98;;;10.00;74.90;;;;;;5015975;28;20107;-77
2024/01/25 12:00:15;;;;;;;8.32;3.10;;;9.90;75.30;;;;;;5016201;28;20025;-78
2024/01/25 12:02:41;;;;;;;7.20;2.53;;;10.00;75.20;;;;;;5015637;28;20151;-77
2024/01/25 12:05:08;;;;;;;4.85;2.05;;;10.10;75.00;;;;;;5033550;28;20041;-77
2024/01/25 12:07:36;;;;;;;5.80;1.50;;;10.20;74.90;;;;;;5014220;28;20052;-78
2024/01/25 12:10:04;;;;;;;4.90;1.77;;;10.20;74.80;;;;;;4996720;28;20128;-77
2024/01/25 12:12:30;;;;;;;5.57;2.05;;;10.30;74.70;;;;;;5016333;28;20033;-77
2024/01/25 12:14:59;;;;;;;5.57;3.17;;;10.40;74.40;;;;;;5032876;28;20022;-77
2024/01/25 12:17:31;;;;;;;4.63;1.52;;;10.40;74.30;;;;;;5032961;28;20509;-76
2024/01/25 12:19:58;;;;;;;4.32;2.65;;;10.40;74.70;;;;;;5031468;28;20183;-76
2024/01/25 12:22:27;;;;;;;3.60;1.80;;;10.30;74.40;;;;;;5031617;28;20021;-79
2024/01/25 12:24:58;;;;;;;4.13;1.70;;;10.10;74.90;;;;;;5032751;28;20022;-78
2024/01/25 12:27:30;;;;;;;5.03;2.33;;;10.10;75.60;;;;;;5032568;28;20045;-78
2024/01/25 12:29:56;;;;;;;4.97;2.03;;;9.90;76.60;;;;;;5033280;28;20022;-79
2024/01/25 12:32:23;;;;;;;3.20;1.40;;;9.80;76.60;;;;;;5015581;28;20122;-80
2024/01/25 12:34:55;;;;;;;6.07;1.75;;;9.70;76.40;;;;;;5035373;28;20025;-81
2024/01/25 12:37:21;;;;;;;4.78;1.60;;;9.60;77.10;;;;;;5020124;28;20021;-79
2024/01/25 12:39:47;;;;;;;3.30;1.60;;;9.70;77.40;;;;;;5019540;28;20056;-80
2024/01/25 12:47:14;;;;;;;3.88;1.63;;;9.80;76.80;;;;;;4989858;28;20055;-80
2024/01/25 12:49:41;;;;;;;5.43;1.63;;;9.80;76.70;;;;;;4979986;28;20030;-80
2024/01/25 12:52:08;;;;;;;2.38;1.15;;;9.90;76.90;;;;;;4980168;28;20030;-80
2024/01/25 12:54:34;;;;;;;3.40;1.63;;;10.00;76.90;;;;;;4979835;28;20026;-80
2024/01/25 12:56:59;;;;;;;1.98;1.13;;;10.10;76.30;;;;;;4980013;28;20028;-81
2024/01/25 12:59:25;;;;;;;1.83;1.17;;;10.20;76.30;;;;;;4997387;28;20019;-81
2024/01/25 13:01:52;;;;;;;3.20;1.67;;;10.30;76.60;;;;;;4979667;28;20026;-82
2024/01/25 13:04:18;;;;;;;2.72;1.33;;;10.40;76.40;;;;;;4979315;28;20026;-81
2024/01/25 13:06:43;;;;;;;2.97;1.65;;;10.40;75.80;;;;;;4996818;28;20035;-80
2024/01/25 13:09:09;;;;;;;3.22;2.13;;;10.40;76.10;;;;;;4979199;28;20030;-80
2024/01/25 13:11:35;;;;;;;3.15;2.00;;;10.40;76.00;;;;;;4979481;28;20050;-80
2024/01/25 13:14:00;;;;;;;2.83;1.52;;;10.40;75.90;;;;;;4979353;28;20026;-78
2024/01/25 13:16:27;;;;;;;3.72;2.13;;;10.40;76.00;;;;;;4979385;28;20093;-80